HSF1169 RKTA-RKJY

Flight info

Callsign HSF1169
Flight time N/A
Altitude 7500
Route DCT
Aircraft C172/L-S/C

Departure

Time 2026-05-05 03:32
Airport Taean Airport (RKTA)

Arrival

Time N/A
Airport Yeosu Airport (RKJY)
Time Latitude Longitude Altitude Speed Heading
2026-05-05 03:21 36.59481 126.29459 22 ft 0 kts 240°
2026-05-05 03:27 36.59480 126.29456 22 ft 2 kts 239°
2026-05-05 03:27 36.59479 126.29434 23 ft 3 kts 315°
2026-05-05 03:27 36.59527 126.29402 21 ft 8 kts 340°
2026-05-05 03:27 36.59570 126.29461 19 ft 9 kts 26°
2026-05-05 03:28 36.59623 126.29433 18 ft 8 kts 329°
2026-05-05 03:28 36.59681 126.29391 16 ft 11 kts 333°
2026-05-05 03:28 36.59716 126.29336 16 ft 5 kts 287°
2026-05-05 03:28 36.59766 126.29296 18 ft 12 kts 330°
2026-05-05 03:29 36.59819 126.29285 18 ft 0 kts 28°
2026-05-05 03:30 36.59822 126.29286 18 ft 1 kts 27°
2026-05-05 03:30 36.59840 126.29311 18 ft 6 kts 84°
2026-05-05 03:30 36.59793 126.29378 17 ft 22 kts 147°
2026-05-05 03:31 36.59529 126.29570 23 ft 62 kts 156°
2026-05-05 03:31 36.59118 126.29866 189 ft 65 kts 154°
2026-05-05 03:31 36.58693 126.30022 347 ft 68 kts 169°
2026-05-05 03:31 36.58206 126.30145 532 ft 72 kts 167°
2026-05-05 03:32 36.57742 126.30308 755 ft 69 kts 163°
2026-05-05 03:32 36.57281 126.30470 967 ft 67 kts 167°
2026-05-05 03:32 36.56829 126.30610 1174 ft 67 kts 167°
2026-05-05 03:32 36.56372 126.30730 1367 ft 67 kts 171°
2026-05-05 03:33 36.55914 126.30828 1557 ft 69 kts 171°
2026-05-05 03:33 36.55408 126.30911 1695 ft 75 kts 176°
2026-05-05 03:33 36.54878 126.30967 1868 ft 77 kts 176°
2026-05-05 03:33 36.54346 126.31017 2049 ft 77 kts 176°
2026-05-05 03:34 36.53805 126.31066 2228 ft 78 kts 176°
2026-05-05 03:34 36.53265 126.31110 2406 ft 78 kts 176°
2026-05-05 03:34 36.52726 126.31152 2587 ft 77 kts 176°
2026-05-05 03:34 36.52190 126.31194 2759 ft 77 kts 176°
2026-05-05 03:35 36.51644 126.31249 2924 ft 78 kts 175°
2026-05-05 03:35 36.51100 126.31306 3094 ft 80 kts 176°
2026-05-05 03:35 36.50550 126.31365 3286 ft 79 kts 175°
2026-05-05 03:35 36.49992 126.31425 3471 ft 80 kts 176°
2026-05-05 03:36 36.49440 126.31486 3658 ft 80 kts 175°
2026-05-05 03:36 36.48883 126.31550 3842 ft 80 kts 175°
2026-05-05 03:36 36.48327 126.31616 4018 ft 81 kts 175°
2026-05-05 03:36 36.47768 126.31679 4202 ft 81 kts 175°
2026-05-05 03:37 36.47204 126.31742 4380 ft 81 kts 176°
2026-05-05 03:37 36.46640 126.31806 4554 ft 82 kts 176°
2026-05-05 03:37 36.46070 126.31870 4722 ft 83 kts 176°
2026-05-05 03:37 36.45493 126.31937 4898 ft 83 kts 176°
2026-05-05 03:38 36.44920 126.32003 5053 ft 84 kts 176°
2026-05-05 03:38 36.44335 126.32069 5225 ft 84 kts 176°
2026-05-05 03:38 36.43743 126.32138 5386 ft 85 kts 175°
2026-05-05 03:38 36.43158 126.32202 5543 ft 85 kts 176°
2026-05-05 03:39 36.42566 126.32269 5708 ft 85 kts 176°
2026-05-05 03:39 36.41972 126.32348 5866 ft 86 kts 172°
2026-05-05 03:39 36.41375 126.32491 6016 ft 87 kts 170°
2026-05-05 03:39 36.40785 126.32656 6166 ft 88 kts 162°
2026-05-05 03:40 36.40351 126.33213 6311 ft 96 kts 118°
2026-05-05 03:40 36.40100 126.33985 6462 ft 97 kts 113°
2026-05-05 03:40 36.39926 126.34795 6614 ft 98 kts 101°
2026-05-05 03:40 36.39830 126.35639 6759 ft 98 kts 99°
2026-05-05 03:41 36.39743 126.36481 6905 ft 99 kts 98°
2026-05-05 03:41 36.39674 126.37324 7047 ft 99 kts 98°
2026-05-05 03:41 36.39607 126.38172 7193 ft 99 kts 97°
2026-05-05 03:41 36.39536 126.39021 7338 ft 99 kts 98°
2026-05-05 03:42 36.39462 126.39872 7469 ft 100 kts 98°
2026-05-05 03:42 36.39383 126.40767 7505 ft 110 kts 98°
2026-05-05 03:42 36.39290 126.41750 7508 ft 118 kts 98°
2026-05-05 03:42 36.39201 126.42775 7506 ft 119 kts 97°
2026-05-05 03:43 36.39135 126.43783 7498 ft 116 kts 96°
2026-05-05 03:43 36.39074 126.44780 7501 ft 115 kts 97°
2026-05-05 03:43 36.39016 126.45760 7501 ft 114 kts 96°
2026-05-05 03:43 36.38958 126.46749 7498 ft 114 kts 96°
2026-05-05 03:44 36.38901 126.47725 7492 ft 112 kts 97°
2026-05-05 03:44 36.38847 126.48690 7497 ft 112 kts 96°
2026-05-05 03:44 36.38793 126.49661 7496 ft 113 kts 96°
2026-05-05 03:44 36.38738 126.50639 7490 ft 113 kts 96°
2026-05-05 03:45 36.38684 126.51598 7485 ft 112 kts 96°
2026-05-05 03:45 36.38627 126.52572 7489 ft 113 kts 96°
2026-05-05 03:45 36.38569 126.53554 7492 ft 114 kts 96°
2026-05-05 03:45 36.38509 126.54544 7494 ft 116 kts 96°
2026-05-05 03:46 36.38446 126.55540 7494 ft 116 kts 96°
2026-05-05 03:46 36.38382 126.56538 7490 ft 117 kts 96°
2026-05-05 03:46 36.38316 126.57553 7490 ft 117 kts 97°
2026-05-05 03:46 36.38252 126.58563 7487 ft 117 kts 97°
2026-05-05 03:47 36.38189 126.59573 7495 ft 117 kts 96°
2026-05-05 03:47 36.38125 126.60576 7488 ft 117 kts 97°
2026-05-05 03:47 36.38064 126.61594 7492 ft 117 kts 96°
2026-05-05 03:47 36.38003 126.62607 7493 ft 118 kts 97°
2026-05-05 03:48 36.37942 126.63612 7498 ft 118 kts 96°
2026-05-05 03:48 36.37730 126.64568 7483 ft 114 kts 129°
2026-05-05 03:48 36.37115 126.65153 7487 ft 109 kts 155°
2026-05-05 03:48 36.36433 126.65577 7489 ft 109 kts 155°
2026-05-05 03:49 36.35779 126.66052 7491 ft 109 kts 152°
2026-05-05 03:49 36.35133 126.66554 7495 ft 110 kts 149°
2026-05-05 03:49 36.34491 126.67089 7496 ft 110 kts 149°
2026-05-05 03:49 36.33850 126.67626 7490 ft 111 kts 149°
2026-05-05 03:50 36.33218 126.68153 7490 ft 110 kts 149°
2026-05-05 03:50 36.32578 126.68690 7491 ft 110 kts 149°
2026-05-05 03:50 36.31939 126.69226 7492 ft 110 kts 149°
2026-05-05 03:50 36.31303 126.69762 7493 ft 110 kts 149°
2026-05-05 03:51 36.30664 126.70303 7490 ft 110 kts 149°
2026-05-05 03:51 36.30037 126.70835 7490 ft 110 kts 149°
2026-05-05 03:51 36.29408 126.71374 7491 ft 110 kts 149°
2026-05-05 03:51 36.28778 126.71915 7491 ft 110 kts 149°
2026-05-05 03:52 36.28146 126.72455 7491 ft 109 kts 149°
2026-05-05 03:52 36.27515 126.72991 7489 ft 109 kts 149°
2026-05-05 03:52 36.26886 126.73528 7491 ft 109 kts 149°
2026-05-05 03:52 36.26254 126.74063 7492 ft 110 kts 149°
2026-05-05 03:53 36.25616 126.74599 7495 ft 110 kts 149°
2026-05-05 03:53 36.24976 126.75131 7495 ft 111 kts 149°
2026-05-05 03:53 36.24343 126.75661 7495 ft 111 kts 149°
2026-05-05 03:53 36.23699 126.76202 7494 ft 111 kts 149°
2026-05-05 03:54 36.23061 126.76735 7498 ft 111 kts 149°
2026-05-05 03:54 36.22424 126.77269 7492 ft 111 kts 149°
2026-05-05 03:54 36.21780 126.77808 7490 ft 110 kts 149°
2026-05-05 03:54 36.21146 126.78342 7490 ft 110 kts 149°
2026-05-05 03:55 36.20515 126.78877 7491 ft 109 kts 149°
2026-05-05 03:55 36.19890 126.79412 7491 ft 109 kts 149°
2026-05-05 03:55 36.19259 126.79948 7492 ft 109 kts 149°
2026-05-05 03:55 36.18632 126.80476 7496 ft 109 kts 149°
2026-05-05 03:56 36.18002 126.81006 7493 ft 109 kts 149°
2026-05-05 03:56 36.17371 126.81535 7492 ft 109 kts 149°
2026-05-05 03:56 36.16741 126.82064 7492 ft 109 kts 149°
2026-05-05 03:56 36.16107 126.82596 7493 ft 109 kts 149°
2026-05-05 03:57 36.15474 126.83120 7497 ft 110 kts 149°
2026-05-05 03:57 36.14834 126.83648 7495 ft 110 kts 149°
2026-05-05 03:57 36.14196 126.84180 7494 ft 110 kts 149°
2026-05-05 03:57 36.13556 126.84712 7495 ft 110 kts 149°
2026-05-05 03:58 36.12923 126.85241 7496 ft 111 kts 149°
2026-05-05 03:58 36.12278 126.85784 7493 ft 110 kts 149°
2026-05-05 03:58 36.11646 126.86316 7496 ft 110 kts 149°
2026-05-05 03:58 36.11006 126.86855 7496 ft 110 kts 149°
2026-05-05 03:59 36.10369 126.87392 7492 ft 110 kts 149°
2026-05-05 03:59 36.09737 126.87923 7489 ft 109 kts 149°
2026-05-05 03:59 36.09105 126.88429 7492 ft 108 kts 154°
2026-05-05 03:59 36.08438 126.88876 7496 ft 108 kts 155°
2026-05-05 04:00 36.07767 126.89314 7500 ft 108 kts 155°
2026-05-05 04:00 36.07098 126.89749 7497 ft 108 kts 155°
2026-05-05 04:00 36.06431 126.90184 7496 ft 108 kts 155°
2026-05-05 04:00 36.05756 126.90626 7495 ft 109 kts 155°
2026-05-05 04:01 36.05088 126.91061 7499 ft 109 kts 155°
2026-05-05 04:01 36.04408 126.91505 7499 ft 110 kts 155°
2026-05-05 04:01 36.03735 126.91941 7496 ft 110 kts 155°
2026-05-05 04:01 36.03052 126.92389 7492 ft 110 kts 155°
2026-05-05 04:02 36.02384 126.92827 7489 ft 109 kts 155°
2026-05-05 04:02 36.01711 126.93272 7494 ft 109 kts 155°
2026-05-05 04:02 36.01042 126.93713 7494 ft 109 kts 155°
2026-05-05 04:02 36.00369 126.94154 7494 ft 108 kts 155°
2026-05-05 04:03 35.99705 126.94589 7498 ft 109 kts 155°
2026-05-05 04:03 35.99033 126.95027 7496 ft 109 kts 155°
2026-05-05 04:03 35.98358 126.95469 7499 ft 109 kts 155°
2026-05-05 04:03 35.97690 126.95904 7497 ft 109 kts 155°
2026-05-05 04:04 35.97015 126.96342 7497 ft 109 kts 155°
2026-05-05 04:04 35.96339 126.96778 7496 ft 109 kts 155°
2026-05-05 04:04 35.95658 126.97215 7499 ft 109 kts 155°
2026-05-05 04:04 35.94984 126.97650 7493 ft 109 kts 155°
2026-05-05 04:05 35.94307 126.98086 7495 ft 109 kts 155°
2026-05-05 04:05 35.93630 126.98521 7493 ft 109 kts 155°
2026-05-05 04:05 35.92960 126.98955 7493 ft 109 kts 155°
2026-05-05 04:05 35.92284 126.99393 7494 ft 109 kts 155°
2026-05-05 04:06 35.91617 126.99827 7490 ft 108 kts 155°
2026-05-05 04:06 35.90947 127.00265 7491 ft 108 kts 155°
2026-05-05 04:06 35.90283 127.00693 7494 ft 108 kts 155°
2026-05-05 04:06 35.89611 127.01127 7497 ft 108 kts 154°
2026-05-05 04:07 35.88936 127.01562 7495 ft 109 kts 155°
2026-05-05 04:07 35.88258 127.02000 7494 ft 109 kts 155°
2026-05-05 04:07 35.87590 127.02429 7493 ft 109 kts 155°
2026-05-05 04:07 35.86914 127.02861 7492 ft 109 kts 155°
2026-05-05 04:08 35.86239 127.03294 7494 ft 109 kts 155°
2026-05-05 04:08 35.85558 127.03732 7495 ft 110 kts 155°
2026-05-05 04:08 35.84877 127.04169 7494 ft 110 kts 155°
2026-05-05 04:08 35.84194 127.04605 7498 ft 110 kts 154°
2026-05-05 04:09 35.83517 127.05039 7498 ft 110 kts 155°
2026-05-05 04:09 35.82834 127.05478 7498 ft 111 kts 155°
2026-05-05 04:09 35.82142 127.05924 7494 ft 111 kts 155°
2026-05-05 04:09 35.81462 127.06363 7492 ft 110 kts 155°
2026-05-05 04:10 35.80778 127.06802 7491 ft 110 kts 155°
2026-05-05 04:10 35.80101 127.07234 7494 ft 109 kts 155°
2026-05-05 04:10 35.79427 127.07669 7495 ft 109 kts 155°
2026-05-05 04:10 35.78746 127.08105 7501 ft 109 kts 155°
2026-05-05 04:11 35.78071 127.08535 7501 ft 110 kts 155°
2026-05-05 04:11 35.77385 127.08974 7500 ft 110 kts 155°
2026-05-05 04:11 35.76704 127.09408 7497 ft 110 kts 155°
2026-05-05 04:11 35.76021 127.09847 7497 ft 110 kts 155°
2026-05-05 04:12 35.75349 127.10279 7495 ft 110 kts 155°
2026-05-05 04:12 35.74663 127.10722 7500 ft 109 kts 155°
2026-05-05 04:12 35.73986 127.11158 7499 ft 110 kts 155°
2026-05-05 04:12 35.73307 127.11595 7500 ft 110 kts 155°
2026-05-05 04:13 35.72631 127.12031 7498 ft 110 kts 155°
2026-05-05 04:13 35.71952 127.12467 7496 ft 109 kts 155°
2026-05-05 04:13 35.71275 127.12904 7495 ft 109 kts 155°
2026-05-05 04:13 35.70602 127.13336 7498 ft 109 kts 155°
2026-05-05 04:14 35.69922 127.13774 7500 ft 109 kts 155°
2026-05-05 04:14 35.69250 127.14208 7502 ft 110 kts 155°
2026-05-05 04:14 35.68565 127.14650 7497 ft 110 kts 155°
2026-05-05 04:14 35.67883 127.15086 7496 ft 110 kts 155°
2026-05-05 04:15 35.67205 127.15519 7493 ft 110 kts 155°
2026-05-05 04:15 35.66529 127.15946 7489 ft 110 kts 155°
2026-05-05 04:15 35.65842 127.16379 7485 ft 110 kts 155°
2026-05-05 04:15 35.65161 127.16808 7483 ft 110 kts 155°
2026-05-05 04:16 35.64487 127.17236 7481 ft 110 kts 155°
2026-05-05 04:16 35.63799 127.17670 7479 ft 110 kts 155°
2026-05-05 04:16 35.63120 127.18101 7480 ft 110 kts 155°
2026-05-05 04:16 35.62440 127.18533 7480 ft 110 kts 155°
2026-05-05 04:17 35.61755 127.18967 7481 ft 109 kts 155°
2026-05-05 04:17 35.61082 127.19395 7481 ft 109 kts 155°
2026-05-05 04:17 35.60406 127.19826 7481 ft 109 kts 155°
2026-05-05 04:17 35.59724 127.20258 7482 ft 109 kts 155°
2026-05-05 04:18 35.59041 127.20694 7481 ft 110 kts 155°
2026-05-05 04:18 35.58362 127.21127 7481 ft 110 kts 155°
2026-05-05 04:18 35.57682 127.21561 7480 ft 110 kts 155°
2026-05-05 04:18 35.57002 127.21995 7480 ft 110 kts 155°
2026-05-05 04:19 35.56312 127.22430 7479 ft 110 kts 155°
2026-05-05 04:19 35.55627 127.22859 7479 ft 110 kts 155°
2026-05-05 04:19 35.54949 127.23284 7479 ft 110 kts 155°
2026-05-05 04:19 35.54268 127.23714 7480 ft 109 kts 155°
2026-05-05 04:20 35.53593 127.24142 7480 ft 109 kts 155°
2026-05-05 04:20 35.52914 127.24571 7481 ft 110 kts 155°
2026-05-05 04:20 35.52234 127.25003 7478 ft 110 kts 155°
2026-05-05 04:20 35.51552 127.25436 7478 ft 110 kts 154°
2026-05-05 04:21 35.50870 127.25868 7477 ft 110 kts 155°
2026-05-05 04:21 35.50168 127.26246 7476 ft 109 kts 160°
2026-05-05 04:21 35.49455 127.26605 7475 ft 109 kts 160°
2026-05-05 04:21 35.48747 127.26963 7474 ft 110 kts 160°
2026-05-05 04:22 35.48046 127.27315 7475 ft 110 kts 160°
2026-05-05 04:22 35.47331 127.27675 7476 ft 110 kts 160°
2026-05-05 04:22 35.46622 127.28034 7477 ft 110 kts 159°
2026-05-05 04:22 35.45911 127.28393 7478 ft 110 kts 160°
2026-05-05 04:23 35.45208 127.28748 7479 ft 109 kts 160°
2026-05-05 04:23 35.44506 127.29102 7481 ft 109 kts 160°
2026-05-05 04:23 35.43799 127.29453 7482 ft 109 kts 160°
2026-05-05 04:23 35.43088 127.29808 7482 ft 109 kts 159°
2026-05-05 04:24 35.42386 127.30157 7483 ft 110 kts 160°
2026-05-05 04:24 35.41675 127.30508 7482 ft 110 kts 160°
2026-05-05 04:24 35.40956 127.30864 7482 ft 110 kts 160°
2026-05-05 04:25 35.39634 127.31838 7489 ft 111 kts 149°
2026-05-05 04:25 35.38981 127.32364 7490 ft 112 kts 149°
2026-05-05 04:25 35.38327 127.32891 7489 ft 112 kts 148°
2026-05-05 04:25 35.37679 127.33410 7488 ft 112 kts 149°
2026-05-05 04:26 35.37027 127.33929 7488 ft 111 kts 149°
2026-05-05 04:26 35.36372 127.34450 7489 ft 111 kts 149°
2026-05-05 04:26 35.35730 127.34960 7490 ft 111 kts 149°
2026-05-05 04:26 35.35075 127.35484 7489 ft 111 kts 149°
2026-05-05 04:27 35.34436 127.35997 7490 ft 111 kts 149°
2026-05-05 04:27 35.33784 127.36523 7488 ft 111 kts 149°
2026-05-05 04:27 35.33138 127.37043 7486 ft 111 kts 149°
2026-05-05 04:27 35.32492 127.37561 7487 ft 111 kts 148°
2026-05-05 04:28 35.31845 127.38078 7487 ft 111 kts 149°
2026-05-05 04:28 35.31193 127.38599 7489 ft 112 kts 149°
2026-05-05 04:28 35.30539 127.39121 7489 ft 112 kts 149°
2026-05-05 04:28 35.29885 127.39645 7488 ft 112 kts 148°
2026-05-05 04:29 35.29231 127.40168 7488 ft 112 kts 149°
2026-05-05 04:29 35.28577 127.40693 7490 ft 112 kts 149°
2026-05-05 04:29 35.27929 127.41213 7490 ft 111 kts 149°
2026-05-05 04:29 35.27276 127.41735 7491 ft 111 kts 149°
2026-05-05 04:30 35.26624 127.42254 7493 ft 111 kts 149°
2026-05-05 04:30 35.25977 127.42765 7494 ft 111 kts 149°
2026-05-05 04:30 35.25328 127.43277 7491 ft 111 kts 149°
2026-05-05 04:30 35.24675 127.43792 7490 ft 111 kts 151°
2026-05-05 04:31 35.23981 127.44206 7491 ft 111 kts 157°
2026-05-05 04:31 35.23269 127.44595 7492 ft 110 kts 158°
2026-05-05 04:31 35.22572 127.44978 7494 ft 110 kts 158°
2026-05-05 04:31 35.21867 127.45364 7494 ft 110 kts 158°
2026-05-05 04:32 35.21163 127.45751 7494 ft 110 kts 158°
2026-05-05 04:32 35.20488 127.46212 7497 ft 111 kts 149°
2026-05-05 04:32 35.19835 127.46729 7495 ft 111 kts 149°
2026-05-05 04:32 35.19190 127.47244 7494 ft 111 kts 149°
2026-05-05 04:33 35.18538 127.47764 7496 ft 111 kts 148°
2026-05-05 04:33 35.17892 127.48273 7498 ft 111 kts 148°
2026-05-05 04:33 35.17243 127.48782 7499 ft 111 kts 149°
2026-05-05 04:33 35.16587 127.49300 7499 ft 111 kts 149°
2026-05-05 04:34 35.15935 127.49817 7497 ft 111 kts 149°
2026-05-05 04:34 35.15288 127.50332 7497 ft 111 kts 149°
2026-05-05 04:34 35.14650 127.50847 7495 ft 111 kts 149°
2026-05-05 04:34 35.13996 127.51373 7495 ft 111 kts 148°
2026-05-05 04:35 35.13351 127.51887 7495 ft 110 kts 149°
2026-05-05 04:35 35.12711 127.52393 7496 ft 109 kts 149°
2026-05-05 04:35 35.12069 127.52905 7499 ft 109 kts 149°
2026-05-05 04:35 35.11440 127.53408 7503 ft 109 kts 149°
2026-05-05 04:36 35.10806 127.53915 7501 ft 108 kts 149°
2026-05-05 04:36 35.10173 127.54419 7502 ft 108 kts 149°
2026-05-05 04:36 35.09537 127.54926 7499 ft 108 kts 148°
2026-05-05 04:36 35.08900 127.55430 7494 ft 108 kts 149°
2026-05-05 04:37 35.08270 127.55923 7492 ft 108 kts 149°
2026-05-05 04:37 35.07644 127.56413 7452 ft 103 kts 150°
2026-05-05 04:37 35.07025 127.56910 7206 ft 108 kts 149°
2026-05-05 04:37 35.06399 127.57423 6976 ft 109 kts 148°
2026-05-05 04:38 35.05771 127.57942 6759 ft 108 kts 148°
2026-05-05 04:38 35.05150 127.58461 6539 ft 108 kts 149°
2026-05-05 04:38 35.04526 127.58979 6322 ft 108 kts 149°
2026-05-05 04:38 35.03904 127.59494 6102 ft 108 kts 149°
2026-05-05 04:39 35.03282 127.60004 5888 ft 108 kts 148°
2026-05-05 04:39 35.02656 127.60512 5683 ft 108 kts 148°
2026-05-05 04:39 35.02034 127.61018 5474 ft 107 kts 148°
2026-05-05 04:39 35.01417 127.61521 5273 ft 106 kts 148°
2026-05-05 04:40 35.00806 127.62020 5073 ft 105 kts 148°
2026-05-05 04:40 35.00205 127.62510 4879 ft 105 kts 149°
2026-05-05 04:40 34.99599 127.63011 4680 ft 104 kts 148°
2026-05-05 04:40 34.99003 127.63500 4481 ft 103 kts 148°
2026-05-05 04:41 34.98407 127.63987 4283 ft 103 kts 148°
2026-05-05 04:41 34.97808 127.64476 4076 ft 103 kts 148°
2026-05-05 04:41 34.97218 127.64954 3889 ft 102 kts 148°
2026-05-05 04:41 34.96621 127.65437 3691 ft 102 kts 149°
2026-05-05 04:42 34.96025 127.65922 3501 ft 102 kts 149°
2026-05-05 04:42 34.95439 127.66396 3306 ft 102 kts 149°
2026-05-05 04:42 34.94850 127.66872 3124 ft 101 kts 149°
2026-05-05 04:42 34.94274 127.67338 3007 ft 97 kts 149°
2026-05-05 04:43 34.93713 127.67799 2996 ft 99 kts 148°
2026-05-05 04:43 34.93134 127.68272 2991 ft 101 kts 148°
2026-05-05 04:43 34.92539 127.68754 2991 ft 103 kts 148°
2026-05-05 04:43 34.91935 127.69241 2992 ft 103 kts 148°
2026-05-05 04:44 34.91336 127.69723 2990 ft 104 kts 148°
2026-05-05 04:44 34.90775 127.70287 2990 ft 105 kts 127°
2026-05-05 04:44 34.90402 127.71056 2990 ft 106 kts 122°
2026-05-05 04:44 34.90049 127.71846 2991 ft 106 kts 121°
2026-05-05 04:45 34.89695 127.72642 2991 ft 106 kts 121°
2026-05-05 04:45 34.89348 127.73431 2989 ft 106 kts 121°
2026-05-05 04:45 34.88995 127.74235 2988 ft 106 kts 121°
2026-05-05 04:45 34.88646 127.75021 2992 ft 106 kts 121°
2026-05-05 04:46 34.88294 127.75812 2994 ft 107 kts 121°
2026-05-05 04:46 34.87939 127.76604 2995 ft 107 kts 121°
2026-05-05 04:46 34.87578 127.77402 2994 ft 107 kts 121°
2026-05-05 04:46 34.87220 127.78204 2995 ft 107 kts 120°
2026-05-05 04:47 34.86865 127.78993 2995 ft 107 kts 121°
2026-05-05 04:47 34.86506 127.79787 2998 ft 107 kts 121°
2026-05-05 04:47 34.86052 127.80492 2988 ft 105 kts 150°
2026-05-05 04:47 34.85357 127.80685 2990 ft 102 kts 183°
2026-05-05 04:48 34.84734 127.80331 2987 ft 102 kts 222°
2026-05-05 04:48 34.84254 127.79681 2991 ft 101 kts 228°
2026-05-05 04:48 34.83802 127.79018 2993 ft 101 kts 228°
2026-05-05 04:48 34.83358 127.78355 2993 ft 101 kts 228°
2026-05-05 04:49 34.82908 127.77682 2994 ft 101 kts 229°
2026-05-05 04:49 34.82468 127.77021 2993 ft 101 kts 229°
2026-05-05 04:49 34.82024 127.76354 2995 ft 101 kts 229°
2026-05-05 04:49 34.81576 127.75685 2992 ft 101 kts 229°
2026-05-05 04:50 34.81129 127.75020 2992 ft 101 kts 229°
2026-05-05 04:50 34.80679 127.74351 2995 ft 101 kts 229°
2026-05-05 04:50 34.80374 127.73598 2902 ft 98 kts 251°
2026-05-05 04:50 34.80272 127.72771 2693 ft 101 kts 264°
2026-05-05 04:51 34.80279 127.71903 2502 ft 101 kts 269°
2026-05-05 04:51 34.80306 127.71052 2319 ft 100 kts 270°
2026-05-05 04:51 34.80336 127.70208 2124 ft 100 kts 269°
2026-05-05 04:51 34.80369 127.69352 1933 ft 100 kts 269°
2026-05-05 04:52 34.80401 127.68510 1767 ft 100 kts 269°
2026-05-05 04:52 34.80436 127.67664 1564 ft 100 kts 270°
2026-05-05 04:52 34.80471 127.66819 1378 ft 100 kts 270°
2026-05-05 04:52 34.80500 127.65993 1299 ft 95 kts 269°
2026-05-05 04:53 34.80514 127.65225 1175 ft 86 kts 266°
2026-05-05 04:53 34.80509 127.64531 996 ft 81 kts 267°
2026-05-05 04:53 34.80680 127.63905 856 ft 76 kts 292°
2026-05-05 04:53 34.80954 127.63367 667 ft 74 kts 300°
2026-05-05 04:54 34.81415 127.63093 482 ft 74 kts 341°
2026-05-05 04:54 34.81909 127.62885 387 ft 75 kts 334°
2026-05-05 04:54 34.82390 127.62629 287 ft 76 kts 334°
2026-05-05 04:54 34.82842 127.62407 176 ft 67 kts 332°
2026-05-05 04:55 34.83279 127.62192 78 ft 67 kts 334°
2026-05-05 04:55 34.83701 127.61986 23 ft 55 kts 335°
2026-05-05 04:55 34.84036 127.61822 38 ft 66 kts 337°
2026-05-05 04:55 34.84530 127.61597 159 ft 79 kts 330°
2026-05-05 04:56 34.85044 127.61345 347 ft 81 kts 332°
2026-05-05 04:56 34.85553 127.61092 583 ft 78 kts 331°